Time;durP1;ratioP1;P1;durP2;ratioP2;P2;SDS_P1;SDS_P2;PMS_P1;PMS_P2;Temp;Humidity;BMP_temperature;BMP_pressure;BME280_temperature;BME280_humidity;BME280_pressure;Samples;Min_cycle;Max_cycle;Signal;HPM_P1;HPM_P2
2021/03/22 00:01:51;;;;;;;8.70;3.28;;;17.70;50.80;;;;;;4972480;28;20039;-65
2021/03/22 00:04:16;;;;;;;9.77;3.25;;;17.70;50.80;;;;;;4986776;28;20047;-65
2021/03/22 00:06:42;;;;;;;9.40;3.05;;;17.70;51.00;;;;;;4980152;28;20051;-59
2021/03/22 00:09:07;;;;;;;11.25;2.40;;;17.60;51.10;;;;;;4963127;28;20042;-65
2021/03/22 00:11:33;;;;;;;9.02;3.20;;;17.50;51.30;;;;;;4955215;28;20054;-61
2021/03/22 00:13:58;;;;;;;9.60;2.65;;;17.60;51.30;;;;;;4957522;28;20024;-64
2021/03/22 00:16:24;;;;;;;9.13;3.30;;;17.60;51.20;;;;;;4967495;28;20038;-65
2021/03/22 00:18:49;;;;;;;7.45;2.30;;;17.60;50.90;;;;;;4974310;28;20575;-65
2021/03/22 00:21:15;;;;;;;9.48;2.88;;;17.80;50.60;;;;;;4972728;28;20085;-62
2021/03/22 00:23:40;;;;;;;8.25;2.60;;;17.90;50.30;;;;;;4974033;28;20042;-65
2021/03/22 00:26:06;;;;;;;6.97;2.75;;;18.00;50.10;;;;;;4967329;28;24892;-66
2021/03/22 00:28:38;;;;;;;7.80;2.63;;;18.10;50.00;;;;;;4966635;28;20078;-65
2021/03/22 00:31:04;;;;;;;6.90;2.63;;;18.10;49.80;;;;;;4973327;28;20042;-65
2021/03/22 00:33:30;;;;;;;11.23;2.70;;;18.20;49.70;;;;;;4959024;28;20031;-65
2021/03/22 00:35:55;;;;;;;8.30;3.08;;;18.20;49.60;;;;;;4958617;28;20114;-65
2021/03/22 00:38:21;;;;;;;8.07;2.70;;;18.20;49.50;;;;;;4958672;28;20038;-66
2021/03/22 00:40:47;;;;;;;6.10;2.28;;;18.20;49.50;;;;;;4974377;28;20050;-65
2021/03/22 00:43:12;;;;;;;8.25;2.58;;;18.20;49.40;;;;;;4967059;28;20516;-65
2021/03/22 00:45:38;;;;;;;7.53;2.72;;;18.30;49.40;;;;;;4965794;28;20132;-62
2021/03/22 00:48:04;;;;;;;8.27;2.25;;;18.30;49.40;;;;;;4966940;28;20027;-62
2021/03/22 00:50:30;;;;;;;8.85;2.50;;;18.30;49.30;;;;;;4966583;28;20046;-65
2021/03/22 00:52:56;;;;;;;6.47;2.33;;;18.30;49.90;;;;;;4958865;28;20035;-65
2021/03/22 00:55:21;;;;;;;8.20;2.28;;;18.20;49.20;;;;;;4966801;28;20092;-66
2021/03/22 00:57:47;;;;;;;5.47;2.10;;;18.20;49.20;;;;;;4966618;28;20118;-65
2021/03/22 01:00:25;;;;;;;5.28;2.38;;;18.20;49.20;;;;;;4967824;28;20035;-66
2021/03/22 01:02:51;;;;;;;4.90;2.13;;;18.20;49.20;;;;;;4977676;28;20038;-62
2021/03/22 01:05:16;;;;;;;6.53;2.40;;;18.20;49.10;;;;;;4971460;28;20570;-62
2021/03/22 01:07:42;;;;;;;8.18;2.00;;;18.20;49.10;;;;;;4966901;28;20042;-62
2021/03/22 01:10:38;;;;;;;4.97;2.50;;;18.30;49.10;;;;;;4976118;28;20070;-65
2021/03/22 01:13:05;;;;;;;4.25;2.03;;;18.20;49.10;;;;;;4967122;28;20062;-62
2021/03/22 01:15:31;;;;;;;7.20;2.20;;;18.20;49.10;;;;;;4966268;28;20418;-61
2021/03/22 01:17:57;;;;;;;7.75;2.50;;;18.20;49.20;;;;;;4966273;28;20031;-65
2021/03/22 01:20:34;;;;;;;8.88;2.85;;;18.10;49.20;;;;;;4966400;28;20039;-65
2021/03/22 01:23:00;;;;;;;9.95;2.75;;;18.10;49.30;;;;;;4960192;28;20034;-65
2021/03/22 01:25:25;;;;;;;7.45;2.58;;;18.10;49.30;;;;;;4966449;28;20039;-66
2021/03/22 01:27:51;;;;;;;6.78;2.80;;;18.10;49.30;;;;;;4966047;28;20088;-65
2021/03/22 01:30:22;;;;;;;5.00;2.10;;;18.00;49.30;;;;;;4966092;28;20034;-60
2021/03/22 01:32:47;;;;;;;5.18;2.13;;;18.00;49.40;;;;;;4974829;28;20035;-67
2021/03/22 01:35:13;;;;;;;9.07;2.47;;;18.00;49.30;;;;;;4974019;28;20468;-65
2021/03/22 01:37:38;;;;;;;6.57;2.17;;;18.00;49.30;;;;;;4965968;28;20528;-61
2021/03/22 01:40:27;;;;;;;7.93;2.55;;;18.00;49.30;;;;;;4966704;28;20058;-65
2021/03/22 01:43:01;;;;;;;6.72;2.83;;;18.00;49.30;;;;;;4985476;28;20039;-65
2021/03/22 01:45:26;;;;;;;7.85;2.80;;;18.00;49.90;;;;;;4976139;28;20116;-65
2021/03/22 01:47:52;;;;;;;8.02;2.50;;;18.00;49.40;;;;;;4975931;28;20687;-66
2021/03/22 01:50:28;;;;;;;7.50;3.08;;;18.00;49.40;;;;;;4972615;28;20049;-65
2021/03/22 01:52:54;;;;;;;7.88;2.50;;;17.90;49.30;;;;;;4965306;28;20090;-65
2021/03/22 01:55:20;;;;;;;9.45;2.38;;;18.00;49.40;;;;;;4956522;28;20571;-62
2021/03/22 01:57:46;;;;;;;4.40;1.90;;;18.00;49.40;;;;;;4965982;28;20039;-65
2021/03/22 02:00:28;;;;;;;6.50;2.50;;;17.90;49.40;;;;;;4958080;28;20034;-66
2021/03/22 02:03:04;;;;;;;6.60;2.67;;;17.90;49.40;;;;;;4957931;28;20050;-62
2021/03/22 02:05:30;;;;;;;9.07;2.75;;;17.90;49.40;;;;;;4955804;28;20045;-62
2021/03/22 02:08:03;;;;;;;7.72;2.08;;;17.90;49.40;;;;;;4964017;28;20043;-65
2021/03/22 02:10:29;;;;;;;9.40;2.72;;;17.90;49.40;;;;;;4971190;28;20031;-65
2021/03/22 02:12:54;;;;;;;6.68;2.72;;;17.90;49.30;;;;;;4964752;28;20552;-66
2021/03/22 02:15:20;;;;;;;4.93;2.13;;;17.90;49.20;;;;;;4965308;28;20047;-66
2021/03/22 02:18:19;;;;;;;8.77;2.30;;;17.90;49.20;;;;;;4956293;28;20101;-62
2021/03/22 02:21:25;;;;;;;6.07;2.47;;;17.90;49.20;;;;;;4938966;28;20100;-61
2021/03/22 02:24:19;;;;;;;6.55;2.47;;;17.90;49.20;;;;;;4966983;28;20117;-66
2021/03/22 02:27:15;;;;;;;7.03;2.55;;;17.90;49.20;;;;;;4969124;28;20604;-60
2021/03/22 02:30:10;;;;;;;7.85;2.35;;;17.90;49.20;;;;;;4969757;28;20031;-66
2021/03/22 02:33:14;;;;;;;6.43;2.17;;;17.90;49.20;;;;;;4968198;28;20038;-63
2021/03/22 02:35:46;;;;;;;8.30;2.42;;;17.80;49.40;;;;;;4966640;28;20035;-62
2021/03/22 02:38:27;;;;;;;5.85;2.13;;;17.80;49.60;;;;;;4990725;28;20535;-63
2021/03/22 02:40:58;;;;;;;5.30;2.63;;;17.80;49.80;;;;;;4971612;28;20077;-62
2021/03/22 02:43:24;;;;;;;7.78;2.50;;;17.70;49.80;;;;;;4966740;28;20646;-62
2021/03/22 02:45:50;;;;;;;8.88;2.97;;;17.80;50.00;;;;;;4974559;28;20034;-65
2021/03/22 02:48:18;;;;;;;5.80;2.05;;;17.80;50.00;;;;;;4975227;28;20039;-65
2021/03/22 02:50:43;;;;;;;6.22;1.92;;;17.80;50.00;;;;;;4947332;28;20465;-61
2021/03/22 02:53:33;;;;;;;5.50;2.53;;;17.70;50.00;;;;;;4963926;28;20031;-65
2021/03/22 02:56:37;;;;;;;6.28;1.98;;;17.70;50.00;;;;;;4962216;28;20085;-62
2021/03/22 02:59:15;;;;;;;8.57;2.90;;;17.70;50.00;;;;;;4980289;28;20037;-62
2021/03/22 03:01:58;;;;;;;6.03;2.20;;;17.70;50.00;;;;;;4973240;28;20559;-62
2021/03/22 03:04:23;;;;;;;6.82;2.38;;;17.70;50.00;;;;;;4962858;28;20042;-65
2021/03/22 03:06:56;;;;;;;8.23;2.90;;;17.70;49.90;;;;;;4964278;28;20050;-65
2021/03/22 03:09:24;;;;;;;5.45;2.28;;;17.70;49.90;;;;;;4979628;28;20175;-61
2021/03/22 03:11:50;;;;;;;5.28;1.92;;;17.70;49.90;;;;;;4965033;28;20825;-66
2021/03/22 03:14:16;;;;;;;5.72;2.33;;;17.70;49.80;;;;;;4965328;28;20490;-66
2021/03/22 03:16:41;;;;;;;6.35;2.20;;;17.70;49.80;;;;;;4972887;28;20054;-65
2021/03/22 03:19:07;;;;;;;4.68;2.15;;;17.70;49.70;;;;;;4957267;28;20050;-66
2021/03/22 03:21:33;;;;;;;7.97;2.67;;;17.70;49.70;;;;;;4955083;28;20098;-67
2021/03/22 03:23:59;;;;;;;6.43;2.35;;;17.70;49.70;;;;;;4967807;28;20052;-66
2021/03/22 03:26:24;;;;;;;6.38;2.15;;;17.70;49.60;;;;;;4953741;28;20486;-63
2021/03/22 03:28:50;;;;;;;5.10;1.70;;;17.70;49.70;;;;;;4955973;28;20490;-65
2021/03/22 03:31:15;;;;;;;5.20;1.95;;;17.70;49.70;;;;;;4957932;28;20129;-62
2021/03/22 03:33:41;;;;;;;5.28;1.98;;;17.70;49.60;;;;;;4964548;28;20548;-63
2021/03/22 03:36:07;;;;;;;8.02;2.20;;;17.70;49.60;;;;;;4964075;28;20039;-66
2021/03/22 03:38:33;;;;;;;5.43;2.33;;;17.70;49.60;;;;;;4977113;28;20692;-66
2021/03/22 03:40:58;;;;;;;6.43;2.30;;;17.70;49.60;;;;;;4985590;23;20039;-60
2021/03/22 03:43:24;;;;;;;5.15;2.10;;;17.60;49.60;;;;;;4988128;28;20097;-60
2021/03/22 03:45:50;;;;;;;6.30;2.60;;;17.70;49.60;;;;;;4999741;28;20092;-59
2021/03/22 03:48:19;;;;;;;5.18;3.00;;;17.70;49.60;;;;;;4996902;28;20034;-60
2021/03/22 03:50:45;;;;;;;7.45;2.60;;;17.70;49.50;;;;;;5000231;28;20038;-58
2021/03/22 03:53:10;;;;;;;9.75;3.90;;;17.70;49.50;;;;;;5008473;28;20443;-60
2021/03/22 03:55:36;;;;;;;6.55;2.20;;;17.70;49.40;;;;;;5015461;28;20033;-60
2021/03/22 03:58:02;;;;;;;6.85;1.90;;;17.70;49.40;;;;;;5014524;28;20120;-59
2021/03/22 04:00:29;;;;;;;8.82;2.50;;;17.70;49.40;;;;;;5013313;28;20519;-61
2021/03/22 04:02:55;;;;;;;5.05;2.08;;;17.70;49.40;;;;;;5011789;28;20037;-62
2021/03/22 04:05:22;;;;;;;7.43;2.22;;;17.70;49.30;;;;;;5012009;28;20080;-62
2021/03/22 04:07:47;;;;;;;6.72;2.08;;;17.70;49.30;;;;;;5016108;28;20234;-59
2021/03/22 04:10:13;;;;;;;6.30;1.90;;;17.70;49.20;;;;;;5020521;28;20615;-60
2021/03/22 04:12:38;;;;;;;4.57;1.88;;;17.70;49.20;;;;;;5010214;28;20050;-62
2021/03/22 04:15:10;;;;;;;5.93;1.95;;;17.70;49.20;;;;;;5016493;28;20043;-60
2021/03/22 04:17:35;;;;;;;5.28;2.30;;;17.70;49.20;;;;;;5016062;28;20707;-61
2021/03/22 04:20:02;;;;;;;5.55;2.65;;;17.70;49.10;;;;;;5014850;28;20042;-60
2021/03/22 04:22:27;;;;;;;3.78;1.75;;;17.70;49.10;;;;;;5013568;28;20437;-60
2021/03/22 04:24:53;;;;;;;5.95;1.88;;;17.70;49.10;;;;;;5017602;28;20300;-60
2021/03/22 04:27:18;;;;;;;4.10;1.63;;;17.70;49.10;;;;;;5018949;28;20121;-60
2021/03/22 04:29:44;;;;;;;5.45;1.58;;;17.70;49.10;;;;;;5015312;28;20117;-60
2021/03/22 04:32:10;;;;;;;5.95;1.65;;;17.70;49.10;;;;;;5017085;28;20029;-59
2021/03/22 04:34:35;;;;;;;7.97;2.08;;;17.70;49.10;;;;;;5010784;28;20045;-59
2021/03/22 04:37:01;;;;;;;6.03;2.40;;;17.70;49.00;;;;;;5010648;28;20512;-60
2021/03/22 04:39:26;;;;;;;7.82;2.17;;;17.70;49.00;;;;;;5018528;28;20128;-61
2021/03/22 04:41:52;;;;;;;5.70;2.22;;;17.70;49.10;;;;;;5014476;28;20121;-62
2021/03/22 04:44:17;;;;;;;9.15;2.45;;;17.70;49.00;;;;;;5013115;28;20026;-58
2021/03/22 04:46:43;;;;;;;5.65;2.42;;;17.70;49.00;;;;;;5013773;28;20030;-61
2021/03/22 04:49:08;;;;;;;10.00;3.00;;;17.70;49.00;;;;;;5019064;28;20465;-61
2021/03/22 04:51:34;;;;;;;5.10;1.90;;;17.70;49.00;;;;;;5014413;28;20492;-63
2021/03/22 04:53:59;;;;;;;5.75;2.20;;;17.70;49.10;;;;;;5016949;28;20465;-60
2021/03/22 04:56:25;;;;;;;5.57;2.05;;;17.70;49.70;;;;;;5016558;28;20480;-61
2021/03/22 04:58:51;;;;;;;6.13;2.58;;;17.70;49.00;;;;;;5011816;28;20452;-61
2021/03/22 05:01:16;;;;;;;6.93;2.35;;;17.70;49.00;;;;;;5012876;28;20527;-60
2021/03/22 05:03:42;;;;;;;6.70;2.10;;;17.70;49.10;;;;;;5015332;28;20428;-58
2021/03/22 05:06:07;;;;;;;8.40;2.63;;;17.70;49.00;;;;;;5014471;28;20397;-59
2021/03/22 05:08:33;;;;;;;5.93;2.10;;;17.70;49.00;;;;;;5016374;28;20516;-61
2021/03/22 05:11:00;;;;;;;4.70;2.13;;;17.70;49.00;;;;;;5016117;28;20490;-62
2021/03/22 05:13:26;;;;;;;5.00;1.85;;;17.70;49.00;;;;;;5017308;28;20037;-63
2021/03/22 05:15:52;;;;;;;7.47;2.05;;;17.70;49.00;;;;;;5012414;28;20404;-63
2021/03/22 05:18:17;;;;;;;6.13;1.80;;;17.70;48.90;;;;;;5010843;28;20113;-62
2021/03/22 05:20:45;;;;;;;5.07;2.00;;;17.70;48.80;;;;;;5015944;28;20034;-60
2021/03/22 05:23:12;;;;;;;10.65;2.63;;;17.70;48.80;;;;;;5019195;28;20045;-60
2021/03/22 05:25:38;;;;;;;5.85;2.20;;;17.70;48.80;;;;;;5012639;28;20085;-62
2021/03/22 05:28:04;;;;;;;6.03;1.90;;;17.70;48.80;;;;;;5012760;28;20572;-62
2021/03/22 05:30:30;;;;;;;9.70;2.80;;;17.70;48.90;;;;;;5011848;28;20069;-60
2021/03/22 05:32:59;;;;;;;6.97;2.20;;;17.70;49.60;;;;;;5019997;28;20056;-59
2021/03/22 05:35:25;;;;;;;7.70;2.35;;;17.70;49.00;;;;;;5009175;28;20530;-59
2021/03/22 05:37:50;;;;;;;11.50;2.25;;;17.70;49.00;;;;;;5015557;28;20041;-58
2021/03/22 05:40:21;;;;;;;5.85;1.90;;;17.70;48.90;;;;;;5012903;28;20042;-58
2021/03/22 05:43:31;;;;;;;5.32;1.85;;;17.70;48.80;;;;;;5014646;28;20056;-59
2021/03/22 05:46:17;;;;;;;4.30;1.73;;;17.70;49.40;;;;;;4974491;28;20045;-60
2021/03/22 05:49:05;;;;;;;6.53;2.13;;;17.70;48.60;;;;;;5012831;28;20042;-60
2021/03/22 05:51:48;;;;;;;7.97;3.08;;;17.70;48.60;;;;;;5010984;28;20037;-62
2021/03/22 05:54:47;;;;;;;9.38;3.90;;;17.70;48.90;;;;;;5016692;28;20505;-61
2021/03/22 05:57:43;;;;;;;8.05;3.58;;;17.70;49.30;;;;;;5012490;28;20038;-61
2021/03/22 06:00:20;;;;;;;9.07;2.80;;;17.70;49.50;;;;;;4974636;28;20108;-60
2021/03/22 06:02:52;;;;;;;8.63;3.10;;;17.70;49.70;;;;;;5011055;28;20459;-61
2021/03/22 06:05:21;;;;;;;8.52;3.47;;;17.70;49.70;;;;;;5011298;28;20045;-64
2021/03/22 06:07:49;;;;;;;15.80;4.88;;;17.70;49.80;;;;;;4996004;28;20468;-60
2021/03/22 06:10:19;;;;;;;13.27;4.88;;;17.70;49.90;;;;;;4998371;28;20087;-59
2021/03/22 06:12:51;;;;;;;14.65;4.68;;;17.70;50.00;;;;;;5013589;28;20088;-57
2021/03/22 06:15:21;;;;;;;13.85;4.78;;;17.70;50.00;;;;;;4995137;28;20061;-60
2021/03/22 06:17:48;;;;;;;18.77;5.13;;;17.60;50.00;;;;;;5009869;28;20502;-63
2021/03/22 06:20:21;;;;;;;12.00;4.97;;;17.70;49.90;;;;;;5011126;28;20038;-61
2021/03/22 06:22:47;;;;;;;10.90;4.32;;;17.70;49.80;;;;;;4994795;28;20034;-60
2021/03/22 06:25:18;;;;;;;16.85;5.20;;;17.70;49.70;;;;;;5011235;28;20127;-60
2021/03/22 06:27:46;;;;;;;12.52;5.13;;;17.70;49.60;;;;;;5012493;28;20041;-61
2021/03/22 06:30:17;;;;;;;10.70;4.70;;;17.70;49.50;;;;;;5000515;28;20034;-59
2021/03/22 06:32:44;;;;;;;11.32;3.90;;;17.70;49.40;;;;;;5010035;28;20060;-60
2021/03/22 06:35:31;;;;;;;14.27;4.40;;;17.70;49.40;;;;;;5011847;28;20034;-59
2021/03/22 06:37:57;;;;;;;15.38;5.25;;;17.70;49.40;;;;;;5013121;28;20029;-61
2021/03/22 06:40:25;;;;;;;9.07;4.90;;;17.70;49.30;;;;;;5013812;28;20060;-59
2021/03/22 06:43:07;;;;;;;12.93;4.57;;;17.60;49.20;;;;;;5014093;28;20069;-61
2021/03/22 06:45:41;;;;;;;12.30;4.20;;;17.60;49.20;;;;;;5014910;28;20049;-60
2021/03/22 06:48:24;;;;;;;11.85;4.18;;;17.60;49.20;;;;;;5011273;28;20045;-60
2021/03/22 06:51:10;;;;;;;12.25;3.42;;;17.60;49.40;;;;;;5012528;28;20041;-60
2021/03/22 06:53:44;;;;;;;15.90;5.10;;;17.50;49.90;;;;;;5016409;28;20450;-60
2021/03/22 06:56:10;;;;;;;13.40;3.75;;;17.40;50.10;;;;;;5022243;28;20025;-60
2021/03/22 06:58:36;;;;;;;12.07;3.60;;;17.40;50.20;;;;;;5022408;28;20040;-63
2021/03/22 07:01:33;;;;;;;14.57;4.60;;;17.40;50.90;;;;;;5014979;28;20034;-63
2021/03/22 07:04:17;;;;;;;18.13;6.70;;;17.40;50.30;;;;;;5020583;28;20494;-61
2021/03/22 07:06:42;;;;;;;17.92;6.80;;;17.40;50.60;;;;;;5005959;28;20026;-62
2021/03/22 07:09:12;;;;;;;17.77;5.85;;;17.40;50.60;;;;;;5005086;28;20056;-62
2021/03/22 07:11:37;;;;;;;19.40;6.63;;;17.40;50.60;;;;;;4990260;28;20125;-62
2021/03/22 07:14:04;;;;;;;19.40;7.28;;;17.40;50.70;;;;;;5007054;28;20128;-63
2021/03/22 07:16:31;;;;;;;14.20;5.50;;;17.50;50.60;;;;;;5006636;28;20083;-62
2021/03/22 07:19:19;;;;;;;19.15;6.68;;;17.50;50.60;;;;;;5005626;28;20022;-63
2021/03/22 07:21:49;;;;;;;16.05;5.47;;;17.50;50.60;;;;;;5005541;28;20113;-61
2021/03/22 07:24:18;;;;;;;18.27;5.75;;;17.50;50.50;;;;;;5004149;28;20682;-63
2021/03/22 07:27:07;;;;;;;16.25;6.50;;;17.60;50.50;;;;;;5004317;28;20058;-63
2021/03/22 07:29:56;;;;;;;17.38;5.88;;;17.60;50.50;;;;;;5017533;28;20068;-62
2021/03/22 07:32:48;;;;;;;13.35;5.40;;;17.60;50.40;;;;;;5012468;28;20100;-64
2021/03/22 07:35:30;;;;;;;13.50;5.45;;;17.60;50.40;;;;;;5009449;28;20026;-64
2021/03/22 07:38:05;;;;;;;17.75;6.13;;;17.60;50.40;;;;;;5009134;28;20111;-63
2021/03/22 07:40:53;;;;;;;12.25;5.35;;;17.60;50.30;;;;;;5008835;28;20029;-62
2021/03/22 07:43:56;;;;;;;13.80;5.20;;;17.60;50.30;;;;;;4991487;28;20042;-64
2021/03/22 07:47:01;;;;;;;16.13;5.10;;;17.60;50.20;;;;;;5022076;28;20121;-62
2021/03/22 07:50:00;;;;;;;12.20;4.68;;;17.70;50.90;;;;;;5019962;28;20048;-63
2021/03/22 07:52:31;;;;;;;12.50;4.90;;;17.70;50.20;;;;;;5007852;28;20030;-63
2021/03/22 07:55:09;;;;;;;11.13;4.47;;;17.60;50.10;;;;;;5008398;28;20019;-62
2021/03/22 07:57:56;;;;;;;11.93;4.05;;;17.70;50.10;;;;;;5014901;28;20029;-63
2021/03/22 08:00:44;;;;;;;8.75;4.57;;;17.70;50.00;;;;;;5013727;28;20021;-62
2021/03/22 08:03:28;;;;;;;13.82;4.55;;;17.70;50.00;;;;;;4983677;28;20045;-62
2021/03/22 08:06:19;;;;;;;10.55;4.18;;;17.70;50.00;;;;;;5009075;28;20026;-61
2021/03/22 08:09:13;;;;;;;15.07;4.32;;;17.70;49.90;;;;;;5007307;28;20026;-63
2021/03/22 08:11:53;;;;;;;14.50;5.10;;;17.70;49.90;;;;;;5007244;28;20077;-63
2021/03/22 08:14:27;;;;;;;9.23;3.78;;;17.70;49.80;;;;;;5009799;28;20104;-61
2021/03/22 08:17:07;;;;;;;14.93;4.40;;;17.80;49.70;;;;;;5026711;28;20411;-63
2021/03/22 08:20:00;;;;;;;16.85;4.72;;;17.80;49.60;;;;;;5019296;28;20081;-64
2021/03/22 08:23:04;;;;;;;10.32;3.92;;;17.90;49.50;;;;;;5007165;28;20037;-64
2021/03/22 08:25:40;;;;;;;12.27;3.92;;;17.80;49.40;;;;;;4989197;28;20042;-62
2021/03/22 08:28:41;;;;;;;13.15;3.97;;;17.80;49.40;;;;;;5008860;28;20754;-62
2021/03/22 08:31:13;;;;;;;8.40;3.60;;;17.90;49.30;;;;;;5006465;28;20034;-63
2021/03/22 08:33:44;;;;;;;8.80;3.75;;;17.80;49.30;;;;;;5007132;28;20025;-63
2021/03/22 08:36:43;;;;;;;11.30;3.85;;;17.90;49.20;;;;;;5014282;28;20116;-63
2021/03/22 08:39:14;;;;;;;11.43;4.43;;;17.80;49.20;;;;;;5021620;28;20080;-61
2021/03/22 08:41:50;;;;;;;10.18;3.42;;;17.80;49.20;;;;;;5007687;28;20416;-63
2021/03/22 08:44:18;;;;;;;9.90;3.75;;;17.80;49.20;;;;;;5023147;28;20830;-63
2021/03/22 08:46:52;;;;;;;9.85;3.92;;;17.80;49.10;;;;;;5006965;28;20083;-61
2021/03/22 08:49:23;;;;;;;10.23;4.00;;;17.80;49.10;;;;;;4990758;28;20397;-62
2021/03/22 08:51:49;;;;;;;10.18;3.40;;;17.80;49.10;;;;;;5006603;28;20018;-62
2021/03/22 08:54:29;;;;;;;8.80;3.38;;;17.80;49.00;;;;;;4991440;28;20084;-63
2021/03/22 08:57:02;;;;;;;10.73;4.60;;;17.80;49.10;;;;;;5019355;28;20030;-62
2021/03/22 08:59:27;;;;;;;7.30;3.38;;;17.80;49.00;;;;;;5016009;28;20021;-63
2021/03/22 09:01:53;;;;;;;7.53;3.30;;;17.70;49.00;;;;;;5008450;28;20553;-61
2021/03/22 09:04:25;;;;;;;9.13;3.47;;;17.80;49.10;;;;;;4989834;28;20030;-63
2021/03/22 09:07:03;;;;;;;10.40;3.97;;;17.80;49.10;;;;;;5021091;28;20017;-63
2021/03/22 09:09:30;;;;;;;10.82;4.45;;;17.70;49.20;;;;;;5006736;28;20014;-61
2021/03/22 09:11:56;;;;;;;11.52;4.25;;;17.70;49.50;;;;;;4978453;28;20033;-60
2021/03/22 09:14:29;;;;;;;10.80;4.13;;;17.70;49.80;;;;;;4972324;28;20040;-62
2021/03/22 09:16:54;;;;;;;7.78;3.42;;;17.70;50.00;;;;;;5003338;28;20034;-62
2021/03/22 09:19:20;;;;;;;9.55;3.60;;;17.70;50.00;;;;;;5012995;28;20025;-63
2021/03/22 09:21:51;;;;;;;19.77;4.47;;;17.60;50.30;;;;;;5027948;28;20064;-62
2021/03/22 09:24:36;;;;;;;7.63;3.70;;;17.50;50.70;;;;;;4990249;28;20037;-62
2021/03/22 09:27:02;;;;;;;8.50;3.90;;;17.50;51.20;;;;;;5034907;28;20065;-63
2021/03/22 09:29:30;;;;;;;9.43;3.55;;;17.50;51.50;;;;;;5018179;28;20076;-61
2021/03/22 09:31:56;;;;;;;7.85;3.90;;;17.40;51.70;;;;;;5025335;28;20536;-61
2021/03/22 09:34:22;;;;;;;8.05;4.10;;;17.40;51.90;;;;;;5026172;28;20112;-62
2021/03/22 09:36:48;;;;;;;6.63;3.60;;;17.50;52.10;;;;;;5027214;28;20632;-61
2021/03/22 09:39:19;;;;;;;7.85;3.85;;;17.50;52.20;;;;;;5018466;28;20053;-59
2021/03/22 09:42:00;;;;;;;8.48;4.22;;;17.50;52.30;;;;;;5041009;23;20084;-67
2021/03/22 09:44:31;;;;;;;7.43;4.28;;;17.50;52.30;;;;;;4969029;28;20050;-63
2021/03/22 09:47:18;;;;;;;8.48;3.70;;;17.50;52.20;;;;;;4973145;28;20042;-63
2021/03/22 09:49:59;;;;;;;8.20;3.83;;;17.50;52.10;;;;;;4980840;28;20121;-60
2021/03/22 09:52:28;;;;;;;10.15;3.95;;;17.50;52.00;;;;;;4972928;28;20031;-63
2021/03/22 09:54:54;;;;;;;9.07;4.07;;;17.50;51.80;;;;;;4993423;28;20124;-63
2021/03/22 09:57:19;;;;;;;10.10;3.72;;;17.60;51.70;;;;;;5002982;28;20080;-63
2021/03/22 10:00:06;;;;;;;9.15;4.47;;;17.60;51.60;;;;;;5005996;28;20116;-64
2021/03/22 10:02:45;;;;;;;7.90;4.22;;;17.60;51.50;;;;;;4991473;28;20118;-63
2021/03/22 10:05:28;;;;;;;9.10;3.97;;;17.60;51.40;;;;;;5004684;28;20045;-64
2021/03/22 10:08:15;;;;;;;10.35;4.05;;;17.60;51.30;;;;;;5000920;28;20065;-64
2021/03/22 10:10:56;;;;;;;8.07;4.40;;;17.60;51.10;;;;;;5001336;28;20034;-64
2021/03/22 10:13:26;;;;;;;11.60;4.30;;;17.60;51.00;;;;;;4992747;28;20048;-63
2021/03/22 10:16:01;;;;;;;7.40;4.55;;;17.60;50.80;;;;;;5003822;28;20033;-63
2021/03/22 10:18:41;;;;;;;6.45;4.40;;;17.60;50.60;;;;;;5003080;28;20064;-64
2021/03/22 10:21:09;;;;;;;7.50;4.88;;;17.60;50.70;;;;;;4986308;28;20842;-64
2021/03/22 10:23:40;;;;;;;10.38;4.43;;;17.60;50.60;;;;;;5005110;28;20034;-65
2021/03/22 10:26:07;;;;;;;11.57;4.53;;;17.60;50.60;;;;;;5004126;28;20030;-66
2021/03/22 10:28:32;;;;;;;8.85;5.20;;;17.60;50.50;;;;;;5007543;28;20050;-64
2021/03/22 10:31:03;;;;;;;9.85;4.70;;;17.60;50.60;;;;;;5002907;28;20119;-64
2021/03/22 10:33:29;;;;;;;11.50;4.78;;;17.60;50.60;;;;;;4999895;28;20034;-63
2021/03/22 10:35:57;;;;;;;7.53;5.13;;;17.60;50.60;;;;;;4991879;28;20049;-64
2021/03/22 10:38:31;;;;;;;7.45;4.95;;;17.60;50.40;;;;;;4994656;28;20034;-63
2021/03/22 10:40:57;;;;;;;7.82;5.07;;;17.60;50.50;;;;;;4992389;28;20043;-62
2021/03/22 10:43:34;;;;;;;8.15;5.03;;;17.60;50.60;;;;;;4987518;28;20628;-63
2021/03/22 10:46:15;;;;;;;8.50;4.90;;;17.60;50.60;;;;;;4994359;28;20449;-63
2021/03/22 10:48:40;;;;;;;7.95;4.80;;;17.60;50.70;;;;;;4993916;28;20129;-62
2021/03/22 10:51:16;;;;;;;10.40;5.03;;;17.60;50.70;;;;;;4993186;28;20173;-60
2021/03/22 10:53:54;;;;;;;;;;;17.70;50.70;;;;;;4996174;28;20031;-59
2021/03/22 10:56:23;;;;;;;9.07;4.57;;;17.60;50.60;;;;;;4995149;28;19949;-62
2021/03/22 10:58:49;;;;;;;10.70;5.68;;;17.70;50.50;;;;;;4992732;28;20034;-63
2021/03/22 11:01:17;;;;;;;8.85;5.20;;;17.70;50.40;;;;;;4998571;28;20037;-58
2021/03/22 11:03:48;;;;;;;7.07;4.40;;;17.70;50.30;;;;;;4997154;28;20081;-63
2021/03/22 11:06:18;;;;;;;9.23;5.47;;;17.70;50.30;;;;;;4999087;28;20124;-62
2021/03/22 11:08:45;;;;;;;11.07;5.72;;;17.70;50.30;;;;;;4998429;28;20093;-62
2021/03/22 11:11:15;;;;;;;9.07;5.28;;;17.70;50.10;;;;;;4980962;28;20129;-62
2021/03/22 11:13:45;;;;;;;8.52;4.78;;;17.80;50.10;;;;;;4993282;28;20042;-62
2021/03/22 11:16:23;;;;;;;9.07;5.03;;;17.70;50.10;;;;;;4995590;28;20036;-62
2021/03/22 11:18:50;;;;;;;7.55;5.50;;;17.80;50.00;;;;;;5025911;28;20655;-62
2021/03/22 11:21:21;;;;;;;9.70;5.07;;;17.80;50.00;;;;;;4991119;28;20057;-61
2021/03/22 11:23:46;;;;;;;9.77;5.03;;;17.80;50.00;;;;;;5006176;28;20038;-64
2021/03/22 11:26:21;;;;;;;8.80;5.60;;;17.80;50.00;;;;;;5006996;28;20044;-64
2021/03/22 11:28:48;;;;;;;11.18;5.65;;;17.80;50.00;;;;;;5008170;28;20042;-62
2021/03/22 11:31:24;;;;;;;8.60;5.00;;;17.80;50.10;;;;;;5008297;28;20080;-63
2021/03/22 11:34:02;;;;;;;8.90;5.32;;;17.80;50.00;;;;;;5008375;28;20034;-62
2021/03/22 11:36:41;;;;;;;13.02;6.10;;;17.80;50.10;;;;;;4999407;28;20073;-62
2021/03/22 11:39:11;;;;;;;12.38;5.63;;;17.80;50.10;;;;;;5008103;28;20137;-61
2021/03/22 11:41:40;;;;;;;9.82;4.80;;;17.80;50.10;;;;;;5008120;28;20042;-59
2021/03/22 11:44:15;;;;;;;10.48;4.85;;;17.80;50.10;;;;;;4990818;28;20045;-58
2021/03/22 11:46:41;;;;;;;13.68;5.75;;;17.80;50.10;;;;;;5004040;28;20065;-61
2021/03/22 11:49:39;;;;;;;9.48;4.80;;;17.80;50.10;;;;;;5008325;28;20030;-62
2021/03/22 11:52:15;;;;;;;12.02;5.90;;;17.80;50.20;;;;;;5007504;28;20026;-65
2021/03/22 11:54:48;;;;;;;8.02;5.00;;;17.80;50.30;;;;;;5008164;28;20122;-65
2021/03/22 11:57:17;;;;;;;12.00;5.63;;;17.80;50.30;;;;;;5008366;28;20578;-63
2021/03/22 11:59:50;;;;;;;9.73;6.10;;;17.80;50.30;;;;;;5006766;28;20378;-64
2021/03/22 12:02:18;;;;;;;11.10;5.57;;;17.80;50.40;;;;;;5004044;28;20039;-61
2021/03/22 12:04:57;;;;;;;10.52;5.47;;;17.80;51.00;;;;;;5009048;28;20058;-59
2021/03/22 12:07:36;;;;;;;10.07;5.03;;;17.70;50.30;;;;;;5006449;28;20030;-58
2021/03/22 12:10:03;;;;;;;11.60;5.50;;;17.80;50.30;;;;;;5007693;28;20034;-62
2021/03/22 12:12:28;;;;;;;10.38;5.22;;;17.80;50.30;;;;;;5007881;28;21903;-59
2021/03/22 12:14:54;;;;;;;10.25;4.53;;;17.80;50.20;;;;;;5007860;28;20026;-64
2021/03/22 12:17:22;;;;;;;9.77;5.15;;;17.80;50.20;;;;;;5008669;28;20501;-62
2021/03/22 12:19:48;;;;;;;10.85;5.20;;;17.80;50.20;;;;;;5006308;28;20030;-63
2021/03/22 12:22:15;;;;;;;10.38;5.03;;;17.80;50.10;;;;;;5007110;28;20034;-63
2021/03/22 12:24:40;;;;;;;9.35;5.15;;;17.80;50.10;;;;;;5003516;28;20121;-63
2021/03/22 12:27:13;;;;;;;8.98;4.82;;;17.80;50.10;;;;;;5007499;28;20124;-62
2021/03/22 12:29:38;;;;;;;7.35;4.88;;;17.80;50.00;;;;;;5007925;28;20042;-62
2021/03/22 12:32:04;;;;;;;6.75;4.55;;;17.80;50.00;;;;;;5006697;28;20030;-62
2021/03/22 12:34:30;;;;;;;12.05;5.95;;;17.80;49.90;;;;;;5006327;28;20088;-62
2021/03/22 12:36:55;;;;;;;8.63;4.95;;;17.80;49.90;;;;;;5006413;28;20030;-62
2021/03/22 12:39:29;;;;;;;8.10;5.18;;;17.80;49.90;;;;;;5008469;28;20034;-59
2021/03/22 12:42:05;;;;;;;9.27;5.32;;;17.80;49.90;;;;;;5007775;28;20034;-61
2021/03/22 12:44:32;;;;;;;9.20;4.47;;;17.80;49.90;;;;;;4992373;28;20063;-61
2021/03/22 12:46:57;;;;;;;8.48;4.70;;;17.80;49.80;;;;;;5007155;28;20493;-62
2021/03/22 12:49:24;;;;;;;9.70;4.55;;;17.80;49.80;;;;;;5007281;28;20109;-64
2021/03/22 12:51:50;;;;;;;9.85;5.40;;;17.80;49.80;;;;;;5007290;28;20054;-66
2021/03/22 12:54:16;;;;;;;9.10;5.55;;;17.80;50.10;;;;;;5007521;28;20030;-65
2021/03/22 12:56:41;;;;;;;5.75;4.20;;;17.80;49.80;;;;;;5002764;28;20076;-65
2021/03/22 12:59:08;;;;;;;8.55;4.45;;;17.80;50.30;;;;;;5008258;28;20026;-62
2021/03/22 13:01:34;;;;;;;10.18;5.10;;;17.80;49.70;;;;;;5006359;28;20761;-64
2021/03/22 13:03:59;;;;;;;8.25;5.35;;;17.80;49.70;;;;;;5007279;28;20026;-62
2021/03/22 13:06:25;;;;;;;5.50;4.35;;;17.80;49.70;;;;;;5008007;28;20052;-62
2021/03/22 13:08:50;;;;;;;7.35;4.97;;;17.80;49.60;;;;;;5007362;28;20535;-62